Time,TemperatureF,DewpointF,PressureIn,WindDirection,WindDirectionDegrees,WindSpeedMPH,WindSpeedGustMPH,Humidity,HourlyPrecipIn,Conditions,Clouds,dailyrainin,SoftwareType,DateUTC
2013-10-17 00:01:00,48.4,45.4,29.71,NE,39,0.4,0.9,89,0.00,,,0.00,WUHU216HW,2013-10-17 04:01:00,
2013-10-17 00:16:00,48.1,45.4,29.71,WNW,293,0.8,1.1,90,0.00,,,0.00,WUHU216HW,2013-10-17 04:16:00,
2013-10-17 00:31:00,48.1,45.4,29.71,WNW,293,0.7,1.6,90,0.00,,,0.00,WUHU216HW,2013-10-17 04:31:00,
2013-10-17 00:46:00,48.1,45.4,29.71,NW,315,0.2,0.2,90,0.00,,,0.00,WUHU216HW,2013-10-17 04:46:00,
2013-10-17 01:01:00,48.1,45.4,29.70,North,0,0.0,0.0,90,0.00,,,0.00,WUHU216HW,2013-10-17 05:01:00,
2013-10-17 01:16:00,47.9,45.2,29.70,WNW,293,0.9,1.1,90,0.00,,,0.00,WUHU216HW,2013-10-17 05:16:00,
2013-10-17 01:31:00,47.9,45.5,29.69,NW,326,0.6,1.1,91,0.00,,,0.00,WUHU216HW,2013-10-17 05:31:00,
2013-10-17 01:46:00,48.1,45.6,29.69,North,0,0.0,0.0,91,0.00,,,0.00,WUHU216HW,2013-10-17 05:46:00,
2013-10-17 02:01:00,48.1,45.6,29.69,North,0,0.0,0.0,91,0.00,,,0.00,WUHU216HW,2013-10-17 06:01:00,
2013-10-17 02:16:00,48.2,45.8,29.69,NW,315,0.6,0.9,91,0.00,,,0.00,WUHU216HW,2013-10-17 06:16:00,
2013-10-17 02:31:00,48.2,45.8,29.69,North,0,0.0,0.0,91,0.00,,,0.00,WUHU216HW,2013-10-17 06:31:00,
2013-10-17 02:46:00,48.4,46.0,29.68,WNW,296,0.9,1.1,91,0.00,,,0.00,WUHU216HW,2013-10-17 06:46:00,
2013-10-17 03:01:00,48.4,46.0,29.67,North,0,0.0,0.0,91,0.00,,,0.00,WUHU216HW,2013-10-17 07:01:00,
2013-10-17 03:16:00,48.4,46.0,29.67,NE,45,0.6,0.9,91,0.00,,,0.00,WUHU216HW,2013-10-17 07:16:00,
2013-10-17 03:31:00,48.4,46.0,29.67,NW,319,0.5,1.1,91,0.00,,,0.00,WUHU216HW,2013-10-17 07:31:00,
2013-10-17 03:46:00,48.4,46.3,29.65,WNW,293,1.1,1.3,92,0.00,,,0.00,WUHU216HW,2013-10-17 07:46:00,
2013-10-17 04:01:00,48.6,46.5,29.65,WNW,293,0.6,1.1,92,0.00,,,0.00,WUHU216HW,2013-10-17 08:01:00,
2013-10-17 04:16:00,48.6,46.5,29.65,North,0,0.0,0.0,92,0.00,,,0.00,WUHU216HW,2013-10-17 08:16:00,
2013-10-17 04:31:00,48.4,46.3,29.65,WNW,293,0.2,0.2,92,0.00,,,0.00,WUHU216HW,2013-10-17 08:31:00,
2013-10-17 04:46:00,48.2,46.1,29.64,NE,45,0.4,0.4,92,0.00,,,0.00,WUHU216HW,2013-10-17 08:46:00,
2013-10-17 05:01:00,48.2,46.1,29.64,West,279,1.2,2.2,92,0.00,,,0.00,WUHU216HW,2013-10-17 09:01:00,
2013-10-17 05:16:00,47.9,45.7,29.63,NNE,23,0.3,0.4,92,0.00,,,0.00,WUHU216HW,2013-10-17 09:16:00,
2013-10-17 05:31:00,47.7,45.5,29.64,West,276,1.0,1.3,92,0.00,,,0.00,WUHU216HW,2013-10-17 09:31:00,
2013-10-17 05:46:00,47.7,45.5,29.63,North,0,0.0,0.0,92,0.00,,,0.00,WUHU216HW,2013-10-17 09:46:00,
2013-10-17 06:01:00,47.5,45.4,29.64,North,0,0.0,0.0,92,0.00,,,0.00,WUHU216HW,2013-10-17 10:01:00,
2013-10-17 06:16:00,47.5,45.4,29.64,NW,310,0.7,1.1,92,0.00,,,0.00,WUHU216HW,2013-10-17 10:16:00,
2013-10-17 06:31:00,47.5,45.4,29.63,North,0,0.0,0.0,92,0.00,,,0.00,WUHU216HW,2013-10-17 10:31:00,
2013-10-17 06:46:00,47.2,45.0,29.64,North,0,0.6,0.7,92,0.00,,,0.00,WUHU216HW,2013-10-17 10:46:00,
2013-10-17 07:01:00,47.2,45.0,29.64,WNW,290,0.9,1.8,92,0.00,,,0.00,WUHU216HW,2013-10-17 11:01:00,
2013-10-17 07:16:00,47.2,45.3,29.63,North,0,0.0,0.0,93,0.00,,,0.00,WUHU216HW,2013-10-17 11:16:00,
2013-10-17 07:31:00,47.3,45.5,29.64,NNW,338,0.5,1.1,93,0.00,,,0.00,WUHU216HW,2013-10-17 11:31:00,
2013-10-17 07:46:00,47.5,45.6,29.65,North,0,0.0,0.0,93,0.00,,,0.00,WUHU216HW,2013-10-17 11:46:00,
2013-10-17 08:01:00,47.9,46.0,29.65,North,0,0.0,0.0,93,0.00,,,0.00,WUHU216HW,2013-10-17 12:01:00,
2013-10-17 08:16:00,47.9,46.3,29.65,North,0,0.0,0.0,94,0.00,,,0.00,WUHU216HW,2013-10-17 12:16:00,
2013-10-17 08:31:00,48.2,46.6,29.65,North,0,0.0,0.0,94,0.00,,,0.00,WUHU216HW,2013-10-17 12:31:00,
2013-10-17 08:46:00,49.0,47.4,29.65,North,0,0.0,0.0,94,0.00,,,0.00,WUHU216HW,2013-10-17 12:46:00,
2013-10-17 09:01:00,49.7,48.0,29.65,NE,45,0.4,0.4,94,0.00,,,0.00,WUHU216HW,2013-10-17 13:01:00,
2013-10-17 09:16:00,50.4,48.7,29.64,West,270,0.8,1.1,94,0.00,,,0.00,WUHU216HW,2013-10-17 13:16:00,
2013-10-17 09:31:00,50.8,49.1,29.64,North,0,0.4,0.7,94,0.00,,,0.00,WUHU216HW,2013-10-17 13:31:00,
2013-10-17 09:46:00,51.8,50.1,29.63,ESE,110,0.3,0.4,94,0.00,,,0.00,WUHU216HW,2013-10-17 13:46:00,
2013-10-17 10:01:00,54.4,52.4,29.63,East,91,0.8,1.8,93,0.00,,,0.00,WUHU216HW,2013-10-17 14:01:00,
2013-10-17 10:16:00,56.7,54.1,29.63,South,171,0.9,2.7,91,0.00,,,0.00,WUHU216HW,2013-10-17 14:16:00,
2013-10-17 10:31:00,58.1,54.3,29.63,SE,124,1.2,2.5,87,0.00,,,0.00,WUHU216HW,2013-10-17 14:31:00,
2013-10-17 10:46:00,59.4,54.9,29.62,SSE,163,1.5,2.9,85,0.00,,,0.00,WUHU216HW,2013-10-17 14:46:00,
2013-10-17 11:01:00,60.5,55.4,29.62,South,174,1.1,2.7,83,0.00,,,0.00,WUHU216HW,2013-10-17 15:01:00,
2013-10-17 11:16:00,61.7,55.9,29.62,West,274,1.4,3.1,81,0.00,,,0.00,WUHU216HW,2013-10-17 15:16:00,
2013-10-17 11:31:00,63.5,57.2,29.61,SE,142,1.4,3.1,80,0.00,,,0.00,WUHU216HW,2013-10-17 15:31:00,
2013-10-17 11:46:00,65.0,57.6,29.62,SSE,165,1.3,4.0,77,0.00,,,0.00,WUHU216HW,2013-10-17 15:46:00,
2013-10-17 12:01:00,66.6,56.5,29.61,South,169,2.1,4.3,70,0.00,,,0.00,WUHU216HW,2013-10-17 16:01:00,
2013-10-17 12:16:00,67.3,56.0,29.61,East,91,2.3,4.9,67,0.00,,,0.00,WUHU216HW,2013-10-17 16:16:00,
2013-10-17 12:31:00,67.9,53.5,29.60,West,271,2.4,5.1,60,0.00,,,0.00,WUHU216HW,2013-10-17 16:31:00,
2013-10-17 12:46:00,68.8,52.9,29.60,WNW,295,1.6,3.6,57,0.00,,,0.00,WUHU216HW,2013-10-17 16:46:00,
2013-10-17 13:01:00,68.4,53.0,29.60,WNW,288,1.7,4.0,58,0.00,,,0.00,WUHU216HW,2013-10-17 17:01:00,
2013-10-17 13:16:00,69.3,52.4,29.60,WNW,293,2.7,7.6,55,0.00,,,0.00,WUHU216HW,2013-10-17 17:16:00,
2013-10-17 13:31:00,69.1,52.8,29.60,WNW,294,3.0,8.1,56,0.00,,,0.00,WUHU216HW,2013-10-17 17:31:00,
2013-10-17 13:46:00,69.3,52.4,29.60,WNW,290,2.9,8.1,55,0.00,,,0.00,WUHU216HW,2013-10-17 17:46:00,
2013-10-17 14:01:00,68.9,51.6,29.60,NW,304,2.6,5.8,54,0.00,,,0.00,WUHU216HW,2013-10-17 18:01:00,
2013-10-17 14:16:00,68.4,51.6,29.60,North,10,1.6,4.5,55,0.00,,,0.00,WUHU216HW,2013-10-17 18:16:00,
2013-10-17 14:31:00,68.4,52.0,29.59,ENE,63,1.3,3.6,56,0.00,,,0.00,WUHU216HW,2013-10-17 18:31:00,
2013-10-17 14:46:00,68.2,50.4,29.59,SW,236,1.7,4.0,53,0.00,,,0.00,WUHU216HW,2013-10-17 18:46:00,
2013-10-17 15:01:00,68.0,51.2,29.60,WSW,237,1.6,5.4,55,0.00,,,0.00,WUHU216HW,2013-10-17 19:01:00,
2013-10-17 15:17:00,67.7,51.4,29.59,West,280,1.5,5.4,56,0.00,,,0.00,WUHU216HW,2013-10-17 19:17:00,
2013-10-17 15:32:00,67.7,51.4,29.59,WNW,282,1.9,5.4,56,0.00,,,0.00,WUHU216HW,2013-10-17 19:32:00,
2013-10-17 15:47:00,67.7,50.9,29.59,West,266,2.5,6.5,55,0.00,,,0.00,WUHU216HW,2013-10-17 19:47:00,
2013-10-17 16:02:00,67.3,51.0,29.59,West,273,2.2,5.4,56,0.00,,,0.00,WUHU216HW,2013-10-17 20:02:00,
2013-10-17 16:17:00,66.8,50.6,29.59,NW,318,1.1,3.6,56,0.00,,,0.00,WUHU216HW,2013-10-17 20:17:00,
2013-10-17 16:32:00,66.4,51.2,29.59,West,275,1.2,3.6,58,0.00,,,0.00,WUHU216HW,2013-10-17 20:32:00,
2013-10-17 16:47:00,65.9,51.7,29.58,West,274,1.0,3.4,60,0.00,,,0.00,WUHU216HW,2013-10-17 20:47:00,
2013-10-17 17:02:00,65.2,51.8,29.58,West,274,1.3,3.1,62,0.00,,,0.00,WUHU216HW,2013-10-17 21:02:00,
2013-10-17 17:17:00,64.1,51.6,29.58,West,278,1.3,3.1,64,0.00,,,0.00,WUHU216HW,2013-10-17 21:17:00,
2013-10-17 17:32:00,63.0,51.4,29.59,West,279,1.0,2.7,66,0.00,,,0.00,WUHU216HW,2013-10-17 21:32:00,
2013-10-17 17:47:00,61.9,50.9,29.59,WNW,283,0.8,2.5,67,0.00,,,0.00,WUHU216HW,2013-10-17 21:47:00,
2013-10-17 18:02:00,60.8,49.9,29.59,West,274,0.8,1.8,67,0.00,,,0.00,WUHU216HW,2013-10-17 22:02:00,
2013-10-17 18:17:00,60.3,49.8,29.60,WNW,293,0.8,1.6,68,0.00,,,0.00,WUHU216HW,2013-10-17 22:17:00,
2013-10-17 18:32:00,59.6,49.4,29.61,WNW,293,0.8,1.8,69,0.00,,,0.00,WUHU216HW,2013-10-17 22:32:00,
2013-10-17 18:47:00,58.7,48.5,29.61,NW,315,0.4,1.1,69,0.00,,,0.00,WUHU216HW,2013-10-17 22:47:00,
2013-10-17 19:02:00,58.0,48.6,29.61,North,0,0.0,0.0,71,0.00,,,0.00,WUHU216HW,2013-10-17 23:02:00,
2013-10-17 19:17:00,56.9,47.9,29.61,North,0,0.0,0.0,72,0.00,,,0.00,WUHU216HW,2013-10-17 23:17:00,
2013-10-17 19:32:00,56.2,47.6,29.61,NW,315,0.8,1.1,73,0.00,,,0.00,WUHU216HW,2013-10-17 23:32:00,
2013-10-17 19:47:00,55.4,47.3,29.61,North,0,0.0,0.0,74,0.00,,,0.00,WUHU216HW,2013-10-17 23:47:00,
2013-10-17 20:02:00,54.7,46.9,29.61,North,0,0.0,0.0,75,0.00,,,0.00,WUHU216HW,2013-10-18 00:02:00,
2013-10-17 20:17:00,54.0,46.3,29.61,WNW,295,0.5,0.9,75,0.00,,,0.00,WUHU216HW,2013-10-18 00:17:00,
2013-10-17 20:32:00,53.6,46.3,29.60,WNW,293,0.8,1.1,76,0.00,,,0.00,WUHU216HW,2013-10-18 00:32:00,
2013-10-17 20:47:00,53.1,45.7,29.61,WNW,293,0.2,0.2,76,0.00,,,0.00,WUHU216HW,2013-10-18 00:47:00,
2013-10-17 21:02:00,52.7,45.7,29.60,North,0,0.0,0.0,77,0.00,,,0.00,WUHU216HW,2013-10-18 01:02:00,
2013-10-17 21:17:00,51.8,45.2,29.59,WNW,293,0.6,0.7,78,0.00,,,0.00,WUHU216HW,2013-10-18 01:17:00,
2013-10-17 21:32:00,51.3,44.6,29.60,North,0,0.0,0.0,78,0.00,,,0.00,WUHU216HW,2013-10-18 01:32:00,
2013-10-17 21:47:00,50.8,44.5,29.60,North,0,0.0,0.0,79,0.00,,,0.00,WUHU216HW,2013-10-18 01:47:00,
2013-10-17 22:02:00,50.8,44.8,29.59,North,0,0.0,0.0,80,0.00,,,0.00,WUHU216HW,2013-10-18 02:02:00,
2013-10-17 22:17:00,50.4,44.7,29.58,North,0,0.0,0.0,81,0.00,,,0.00,WUHU216HW,2013-10-18 02:17:00,
2013-10-17 22:32:00,50.2,44.9,29.58,NW,315,0.4,0.9,82,0.00,,,0.00,WUHU216HW,2013-10-18 02:32:00,
2013-10-17 22:47:00,50.0,44.7,29.58,NW,315,0.6,1.1,82,0.00,,,0.00,WUHU216HW,2013-10-18 02:47:00,
2013-10-17 23:02:00,50.0,45.0,29.57,NW,315,0.8,1.1,83,0.00,,,0.00,WUHU216HW,2013-10-18 03:02:00,
2013-10-17 23:17:00,50.0,45.0,29.56,WNW,290,0.8,1.8,83,0.00,,,0.00,WUHU216HW,2013-10-18 03:17:00,
2013-10-17 23:32:00,50.0,45.4,29.55,North,0,0.0,0.0,84,0.00,,,0.00,WUHU216HW,2013-10-18 03:32:00,
2013-10-17 23:47:00,50.0,45.4,29.56,North,0,0.0,0.0,84,0.00,,,0.00,WUHU216HW,2013-10-18 03:47:00,